Rockaway Beach, Oregon
Current Conditions -  °F | °C
As of 11:15 PM on Thursday 30 Oct 2014 (Local Time) from KTMK Reporting Station
Drizzle Drizzle  
Wind Chill: 54°   Ceiling: 1600
Heat Index: 54°   Visibility: 2.5mi
Dew Point: 52°   Wind: 0mph
Humidity: 94%   Direction: NA
Pressure: 29.8"   Gusts: NA
Location:  45.61°N, 123.94°W
Report Text: KTMK 310615Z AUTO 00000KT 2 1/2SM DZ BKN016 OVC030 12/11 A2980 RMK AO2 P0001
Loading
Personal Weather Stations






























Interactive Weather Map
Tropical Storm Tracking
New forecast layout! Learn more

10-Day Weather Forecast

Advertisements
Track Severe Weather on mobile